Time;durP1;ratioP1;P1;durP2;ratioP2;P2;SDS_P1;SDS_P2;PMS_P1;PMS_P2;Temp;Humidity;BMP_temperature;BMP_pressure;BME280_temperature;BME280_humidity;BME280_pressure;Samples;Min_cycle;Max_cycle;Signal;HPM_P1;HPM_P2
2022/05/26 00:01:26;;;;;;;8.63;5.57;;;20.00;99.90;;;;;;4992723;28;20457;-70
2022/05/26 00:03:52;;;;;;;12.63;6.00;;;19.90;99.90;;;;;;4992690;28;20030;-71
2022/05/26 00:06:20;;;;;;;12.25;5.30;;;19.90;99.90;;;;;;4992837;28;20480;-70
2022/05/26 00:08:47;;;;;;;9.35;5.40;;;19.90;99.90;;;;;;4992263;28;20094;-71
2022/05/26 00:11:22;;;;;;;9.98;5.20;;;19.90;99.90;;;;;;4994476;28;20030;-72
2022/05/26 00:13:49;;;;;;;10.00;5.25;;;19.90;99.90;;;;;;4996099;28;20062;-72
2022/05/26 00:16:14;;;;;;;8.43;5.35;;;19.80;99.90;;;;;;4996021;28;20035;-72
2022/05/26 00:18:41;;;;;;;9.30;5.60;;;19.80;99.90;;;;;;4996017;28;20150;-72
2022/05/26 00:21:06;;;;;;;6.70;4.55;;;19.80;99.90;;;;;;4996429;28;20381;-71
2022/05/26 00:23:33;;;;;;;7.90;4.72;;;19.80;99.90;;;;;;4995790;28;20045;-69
2022/05/26 00:25:59;;;;;;;8.95;4.90;;;19.90;99.90;;;;;;4995876;28;20125;-71
2022/05/26 00:28:26;;;;;;;7.95;4.95;;;19.80;99.90;;;;;;4996053;28;20069;-71
2022/05/26 00:30:53;;;;;;;9.18;4.75;;;19.80;99.90;;;;;;4996035;28;20030;-71
2022/05/26 00:33:19;;;;;;;7.30;4.38;;;19.80;99.90;;;;;;4995879;28;20027;-71
2022/05/26 00:35:45;;;;;;;8.05;4.35;;;19.70;99.90;;;;;;4995913;28;20057;-72
2022/05/26 00:38:13;;;;;;;8.48;5.13;;;19.70;99.90;;;;;;4995713;28;20469;-71
2022/05/26 00:40:41;;;;;;;6.95;4.25;;;19.60;99.90;;;;;;4995534;28;20109;-71
2022/05/26 00:43:08;;;;;;;6.63;4.53;;;19.70;99.90;;;;;;4995768;28;20080;-71
2022/05/26 00:45:39;;;;;;;10.05;4.63;;;19.60;99.90;;;;;;4995705;28;20122;-71
2022/05/26 00:48:10;;;;;;;9.38;4.90;;;19.60;99.90;;;;;;5026760;28;20034;-72
2022/05/26 00:50:45;;;;;;;10.45;5.40;;;19.60;99.90;;;;;;4995556;28;20039;-72
2022/05/26 00:53:36;;;;;;;10.52;4.82;;;19.60;99.90;;;;;;4995392;28;20469;-71
2022/05/26 00:56:16;;;;;;;5.82;3.90;;;19.70;99.90;;;;;;4995238;28;20038;-71
2022/05/26 00:58:45;;;;;;;9.43;5.13;;;19.60;99.90;;;;;;4995365;28;20033;-70
2022/05/26 01:01:12;;;;;;;8.82;4.40;;;19.60;99.90;;;;;;4995078;28;20030;-71
2022/05/26 01:03:58;;;;;;;11.05;4.82;;;19.60;99.90;;;;;;4995297;28;20041;-71
2022/05/26 01:06:31;;;;;;;9.73;5.05;;;19.60;99.90;;;;;;4995286;28;20042;-71
2022/05/26 01:08:59;;;;;;;10.20;5.03;;;19.60;99.90;;;;;;4995168;28;20034;-71
2022/05/26 01:11:27;;;;;;;8.52;4.43;;;19.60;99.90;;;;;;4995099;28;20030;-72
2022/05/26 01:13:59;;;;;;;9.25;5.38;;;19.50;99.90;;;;;;4995180;28;20035;-72
2022/05/26 01:17:03;;;;;;;7.35;4.70;;;19.50;99.90;;;;;;4995239;28;20384;-70
2022/05/26 01:19:49;;;;;;;7.80;4.72;;;19.40;99.90;;;;;;4992791;28;20182;-72
2022/05/26 01:22:21;;;;;;;7.63;4.22;;;19.50;99.90;;;;;;4991933;28;20030;-71
2022/05/26 01:25:05;;;;;;;7.43;4.50;;;19.50;99.90;;;;;;4992468;28;20066;-70
2022/05/26 01:27:37;;;;;;;11.48;4.53;;;19.50;99.90;;;;;;4992633;28;20059;-72
2022/05/26 01:30:20;;;;;;;8.60;4.45;;;19.40;99.90;;;;;;4992584;28;20064;-72
2022/05/26 01:33:30;;;;;;;7.72;4.80;;;19.40;99.90;;;;;;4992475;28;20518;-71
2022/05/26 01:36:07;;;;;;;5.68;3.97;;;19.40;99.90;;;;;;4989701;28;20046;-71
2022/05/26 01:39:13;;;;;;;5.82;4.20;;;19.30;99.90;;;;;;4992360;28;20045;-71
2022/05/26 01:41:42;;;;;;;16.30;4.75;;;19.30;99.90;;;;;;4934526;29;20040;-71
2022/05/26 01:44:22;;;;;;;7.03;4.72;;;19.30;99.90;;;;;;4934508;29;20036;-70
2022/05/26 01:46:50;;;;;;;6.43;3.80;;;19.20;99.90;;;;;;4934244;29;20058;-71
2022/05/26 01:49:30;;;;;;;5.72;4.10;;;19.20;99.90;;;;;;4934308;29;20131;-71
2022/05/26 01:52:10;;;;;;;5.93;3.35;;;19.20;99.90;;;;;;4934337;29;20098;-70
2022/05/26 01:54:47;;;;;;;4.22;3.00;;;19.20;99.90;;;;;;4933957;29;20139;-69
2022/05/26 01:57:24;;;;;;;3.03;2.53;;;19.10;99.90;;;;;;4904113;29;20105;-71
2022/05/26 01:59:55;;;;;;;5.13;3.00;;;19.00;99.90;;;;;;4912173;29;20064;-71
2022/05/26 02:02:30;;;;;;;4.53;3.00;;;18.90;99.90;;;;;;4896817;29;20055;-69
2022/05/26 02:05:01;;;;;;;3.70;2.53;;;18.90;99.90;;;;;;4896991;29;20496;-71
2022/05/26 02:07:45;;;;;;;4.88;2.90;;;18.90;99.90;;;;;;4896262;29;20559;-71
2022/05/26 02:10:20;;;;;;;5.40;2.75;;;18.80;99.90;;;;;;4896006;29;20128;-71
2022/05/26 02:12:56;;;;;;;5.22;3.00;;;18.80;99.90;;;;;;4896010;29;20521;-69
2022/05/26 02:15:37;;;;;;;5.50;2.90;;;18.80;99.90;;;;;;4896067;29;20651;-71
2022/05/26 02:18:10;;;;;;;3.00;2.70;;;18.70;99.90;;;;;;4945017;29;20062;-70
2022/05/26 02:20:47;;;;;;;3.88;2.72;;;18.70;99.90;;;;;;4955202;29;20074;-71
2022/05/26 02:23:28;;;;;;;9.80;2.38;;;18.50;99.90;;;;;;4955356;28;20027;-71
2022/05/26 02:25:55;;;;;;;4.22;2.25;;;18.50;99.90;;;;;;4954488;29;20043;-71
2022/05/26 02:28:21;;;;;;;9.38;2.67;;;18.50;99.90;;;;;;4954678;29;20026;-71
2022/05/26 02:30:48;;;;;;;4.35;2.17;;;18.50;99.90;;;;;;4955147;29;20051;-72
2022/05/26 02:33:15;;;;;;;3.75;2.35;;;18.50;99.90;;;;;;4954953;28;20023;-71
2022/05/26 02:35:45;;;;;;;4.43;2.70;;;18.40;99.90;;;;;;4954888;28;20031;-72
2022/05/26 02:38:15;;;;;;;13.07;3.75;;;18.30;99.90;;;;;;4954801;28;20027;-68
2022/05/26 02:40:42;;;;;;;3.95;2.30;;;18.30;99.90;;;;;;4954846;29;20045;-71
2022/05/26 02:43:10;;;;;;;4.68;2.70;;;18.30;99.90;;;;;;4954785;28;20023;-71
2022/05/26 02:46:04;;;;;;;5.30;3.10;;;18.30;99.90;;;;;;4954763;29;20077;-71
2022/05/26 02:48:48;;;;;;;3.80;2.90;;;18.30;99.90;;;;;;5024029;28;20054;-69
2022/05/26 02:51:23;;;;;;;6.22;2.92;;;18.30;99.90;;;;;;4993499;28;20022;-70
2022/05/26 02:54:13;;;;;;;6.07;2.67;;;18.30;99.90;;;;;;4993133;28;20598;-71
2022/05/26 02:57:01;;;;;;;6.85;2.88;;;18.30;99.90;;;;;;4993152;28;20101;-69
2022/05/26 02:59:47;;;;;;;3.63;2.60;;;18.30;99.90;;;;;;4993170;28;20038;-69
2022/05/26 03:02:29;;;;;;;4.18;2.63;;;18.30;99.90;;;;;;4993122;28;20104;-71
2022/05/26 03:05:03;;;;;;;4.47;2.75;;;18.30;99.90;;;;;;4992948;28;20042;-71
2022/05/26 03:07:32;;;;;;;6.95;2.97;;;18.30;99.90;;;;;;4993052;28;20088;-72
2022/05/26 03:10:02;;;;;;;4.65;2.70;;;18.20;99.90;;;;;;4992820;28;20023;-71
2022/05/26 03:12:33;;;;;;;4.63;2.63;;;18.30;99.90;;;;;;4993111;28;20062;-71
2022/05/26 03:14:59;;;;;;;5.93;2.80;;;18.30;99.90;;;;;;4973669;28;20038;-71
2022/05/26 03:17:25;;;;;;;4.55;2.90;;;18.30;99.90;;;;;;4973585;28;20373;-71
2022/05/26 03:19:51;;;;;;;4.07;2.55;;;18.30;99.90;;;;;;4973318;28;20070;-71
2022/05/26 03:22:18;;;;;;;4.40;3.00;;;18.40;99.90;;;;;;4973882;28;20073;-72
2022/05/26 03:24:44;;;;;;;4.72;2.88;;;18.40;99.90;;;;;;4973360;28;20023;-71
2022/05/26 03:27:10;;;;;;;4.30;2.63;;;18.40;99.90;;;;;;4973416;28;20035;-71
2022/05/26 03:29:36;;;;;;;4.90;3.17;;;18.40;99.90;;;;;;4973598;28;20041;-71
2022/05/26 03:32:02;;;;;;;7.13;2.70;;;18.50;99.90;;;;;;4973315;28;20150;-72
2022/05/26 03:42:43;;;;;;;4.20;2.70;;;18.60;99.90;;;;;;4973329;28;20465;-71
2022/05/26 03:45:09;;;;;;;7.18;3.53;;;18.60;99.90;;;;;;4973417;28;20035;-69
2022/05/26 03:47:35;;;;;;;6.88;2.88;;;18.60;99.90;;;;;;4976752;28;20050;-69
2022/05/26 03:50:01;;;;;;;5.15;2.28;;;18.70;99.90;;;;;;4977008;28;20034;-71
2022/05/26 03:52:27;;;;;;;5.10;3.08;;;18.70;99.90;;;;;;4977117;28;20041;-71
2022/05/26 03:54:53;;;;;;;6.45;2.72;;;18.80;99.90;;;;;;4976599;28;20022;-71
2022/05/26 03:57:23;;;;;;;5.28;2.65;;;18.80;99.90;;;;;;4976971;28;20038;-71
2022/05/26 03:59:49;;;;;;;3.88;2.88;;;18.80;99.90;;;;;;4976906;28;20111;-71
2022/05/26 04:02:15;;;;;;;4.38;2.85;;;18.80;99.90;;;;;;4976555;28;20488;-72
2022/05/26 04:04:41;;;;;;;4.88;2.75;;;18.80;99.90;;;;;;4976713;28;20058;-71
2022/05/26 04:07:07;;;;;;;3.92;2.67;;;18.80;99.90;;;;;;4976374;28;20039;-71
2022/05/26 04:09:33;;;;;;;4.78;2.95;;;18.80;99.90;;;;;;4976361;28;20026;-71
2022/05/26 04:11:59;;;;;;;5.43;3.03;;;18.80;99.90;;;;;;4976312;28;20577;-70
2022/05/26 04:14:25;;;;;;;6.38;2.75;;;18.90;99.90;;;;;;4995064;28;20036;-70
2022/05/26 04:16:51;;;;;;;3.95;2.70;;;18.90;99.90;;;;;;4995356;28;20010;-71
2022/05/26 04:19:16;;;;;;;3.88;2.80;;;19.20;99.90;;;;;;4995459;28;20085;-71
2022/05/26 04:24:27;;;;;;;4.05;2.50;;;19.60;99.90;;;;;;4995546;28;20045;-70
2022/05/26 04:26:53;;;;;;;6.15;3.10;;;20.00;99.90;;;;;;4995269;28;20030;-71
2022/05/26 04:29:23;;;;;;;7.22;1.92;;;20.70;99.90;;;;;;4995232;28;20026;-71
2022/05/26 04:31:52;;;;;;;3.67;2.30;;;21.10;99.90;;;;;;4995484;28;20035;-70
2022/05/26 04:34:18;;;;;;;6.35;3.13;;;21.50;99.90;;;;;;4995161;28;20029;-72
2022/05/26 04:36:45;;;;;;;3.15;1.95;;;21.60;99.90;;;;;;4995301;28;20424;-73
2022/05/26 04:39:10;;;;;;;3.72;2.30;;;22.00;99.90;;;;;;4995891;28;20014;-72
2022/05/26 04:41:36;;;;;;;3.78;2.70;;;22.30;99.90;;;;;;4994930;28;20415;-73
2022/05/26 04:44:02;;;;;;;3.35;2.35;;;22.70;99.90;;;;;;4995023;28;20023;-73
2022/05/26 04:46:28;;;;;;;6.35;2.17;;;22.90;99.90;;;;;;4994520;28;20112;-73
2022/05/26 04:48:54;;;;;;;2.17;1.75;;;23.00;99.90;;;;;;4995413;28;20381;-72
2022/05/26 04:51:19;;;;;;;4.07;2.00;;;23.60;99.90;;;;;;4995315;28;20101;-72
2022/05/26 04:53:46;;;;;;;9.68;2.20;;;23.00;99.90;;;;;;4995008;28;20022;-72
2022/05/26 04:56:12;;;;;;;9.25;2.08;;;23.10;99.90;;;;;;4994914;28;20027;-73
2022/05/26 04:58:37;;;;;;;3.25;1.67;;;22.70;99.90;;;;;;4993767;28;20372;-73
2022/05/26 05:01:14;;;;;;;2.47;1.65;;;22.30;99.90;;;;;;4994951;28;20092;-73
2022/05/26 05:03:40;;;;;;;1.52;1.40;;;21.80;99.90;;;;;;4995072;28;20026;-73
2022/05/26 05:06:06;;;;;;;4.13;1.92;;;21.80;99.90;;;;;;4994525;28;20042;-73
2022/05/26 05:08:32;;;;;;;2.88;1.60;;;21.50;99.90;;;;;;4994870;28;20350;-73
2022/05/26 05:10:57;;;;;;;6.68;2.05;;;21.10;99.90;;;;;;4994750;28;20027;-72
2022/05/26 05:13:24;;;;;;;6.05;1.65;;;21.10;99.90;;;;;;4994678;28;20238;-73
2022/05/26 05:16:02;;;;;;;3.97;1.70;;;21.00;99.90;;;;;;4994825;28;20033;-72
2022/05/26 05:18:28;;;;;;;4.07;1.55;;;20.80;99.90;;;;;;4994873;28;20404;-72
2022/05/26 05:20:58;;;;;;;2.28;1.38;;;20.80;99.90;;;;;;4994815;28;20040;-72
2022/05/26 05:23:24;;;;;;;5.25;1.70;;;20.70;99.90;;;;;;4994734;28;20027;-71
2022/05/26 05:25:53;;;;;;;5.78;1.73;;;20.70;99.90;;;;;;4994674;28;20376;-65
2022/05/26 05:28:25;;;;;;;5.38;1.90;;;20.60;99.90;;;;;;4994664;28;20535;-72
2022/05/26 05:31:02;;;;;;;;;;;20.60;99.90;;;;;;4994555;28;20030;-70
2022/05/26 05:33:34;;;;;;;4.80;2.22;;;20.40;99.90;;;;;;4994604;28;20025;-71
2022/05/26 05:36:23;;;;;;;4.40;1.60;;;20.30;99.90;;;;;;4994338;28;20030;-73
2022/05/26 05:38:49;;;;;;;4.45;2.00;;;20.10;99.90;;;;;;4994207;28;20042;-72
2022/05/26 05:41:15;;;;;;;5.93;2.30;;;20.10;99.90;;;;;;4994451;28;20018;-64
2022/05/26 05:43:42;;;;;;;3.30;1.95;;;20.10;99.90;;;;;;4994365;28;20030;-72
2022/05/26 05:46:08;;;;;;;4.47;1.67;;;20.40;99.90;;;;;;4993728;28;20121;-64
2022/05/26 05:48:38;;;;;;;3.95;2.25;;;20.70;99.90;;;;;;4993723;28;20492;-64
2022/05/26 05:51:04;;;;;;;5.30;2.60;;;20.90;99.90;;;;;;4993957;28;20022;-68
2022/05/26 05:53:30;;;;;;;4.10;2.20;;;21.30;99.90;;;;;;4994145;28;20030;-72
2022/05/26 05:55:56;;;;;;;1.80;1.40;;;21.60;99.90;;;;;;4994127;28;20026;-72
2022/05/26 05:58:22;;;;;;;2.28;1.40;;;21.70;99.90;;;;;;4994202;28;20026;-72
2022/05/26 06:00:47;;;;;;;5.03;1.80;;;21.80;99.90;;;;;;4993273;28;20524;-71
2022/05/26 06:03:13;;;;;;;4.82;1.38;;;22.20;99.90;;;;;;4993250;28;20023;-68
2022/05/26 06:05:39;;;;;;;3.13;1.73;;;22.20;99.90;;;;;;4993181;28;20034;-66
2022/05/26 06:08:05;;;;;;;4.35;1.65;;;22.10;99.90;;;;;;4993504;28;20368;-64
2022/05/26 06:10:32;;;;;;;6.53;1.80;;;22.20;99.90;;;;;;4993795;28;20092;-64
2022/05/26 06:12:58;;;;;;;4.65;1.40;;;22.30;99.90;;;;;;4993594;28;20026;-66
2022/05/26 06:15:25;;;;;;;2.38;1.58;;;22.20;99.90;;;;;;4993607;28;20073;-71
2022/05/26 06:17:51;;;;;;;3.00;1.67;;;22.20;99.90;;;;;;4989922;28;20444;-71
2022/05/26 06:20:17;;;;;;;5.00;1.80;;;22.50;99.90;;;;;;4984472;28;20464;-69
2022/05/26 06:22:45;;;;;;;2.67;1.42;;;22.40;99.90;;;;;;4990896;28;20360;-72
2022/05/26 06:25:12;;;;;;;8.65;1.52;;;22.60;99.00;;;;;;4993017;28;20547;-72
2022/05/26 06:30:26;;;;;;;5.30;1.40;;;22.50;96.90;;;;;;4993417;28;20401;-73
2022/05/26 06:38:25;;;;;;;2.35;1.42;;;22.70;97.90;;;;;;4988688;28;20030;-73
2022/05/26 06:40:51;;;;;;;3.13;1.75;;;22.60;99.00;;;;;;4990410;28;20049;-71
2022/05/26 06:43:18;;;;;;;4.93;1.20;;;22.70;97.80;;;;;;4990183;28;20117;-73
2022/05/26 06:45:46;;;;;;;3.83;1.50;;;22.50;95.40;;;;;;4991824;28;20039;-71
2022/05/26 06:48:13;;;;;;;4.80;1.98;;;22.50;94.80;;;;;;4991884;28;20065;-71
2022/05/26 06:50:39;;;;;;;3.17;1.60;;;22.60;95.90;;;;;;4992634;28;20455;-72
2022/05/26 06:53:06;;;;;;;2.83;1.58;;;22.80;96.40;;;;;;4992516;28;20076;-71
2022/05/26 06:55:32;;;;;;;3.65;1.88;;;22.70;93.70;;;;;;4992830;28;20528;-72
2022/05/26 06:57:58;;;;;;;3.10;1.55;;;23.10;94.30;;;;;;4992495;28;20106;-71
2022/05/26 07:00:23;;;;;;;1.60;1.23;;;23.00;95.50;;;;;;4992491;28;20038;-72
2022/05/26 07:02:51;;;;;;;1.88;1.55;;;23.10;95.20;;;;;;4992376;28;20036;-71
2022/05/26 07:05:17;;;;;;;1.90;1.40;;;23.30;94.20;;;;;;4991871;28;20034;-71
2022/05/26 07:07:43;;;;;;;4.43;1.67;;;22.90;92.10;;;;;;4992221;28;20018;-72
2022/05/26 07:10:13;;;;;;;5.82;1.65;;;22.90;93.00;;;;;;4991940;28;20528;-72
2022/05/26 07:12:40;;;;;;;2.47;1.60;;;23.00;94.60;;;;;;4991359;28;20026;-71
2022/05/26 07:15:08;;;;;;;3.05;1.50;;;23.20;92.40;;;;;;4991608;28;20022;-72
2022/05/26 07:17:35;;;;;;;2.38;1.13;;;22.90;93.20;;;;;;4991895;28;20456;-72
2022/05/26 07:20:02;;;;;;;3.28;1.50;;;22.90;94.70;;;;;;4991108;28;20090;-72
2022/05/26 07:22:30;;;;;;;2.28;1.40;;;23.30;94.30;;;;;;4991508;28;20117;-71
2022/05/26 07:24:56;;;;;;;2.28;1.55;;;23.40;92.90;;;;;;4991541;28;20049;-72
2022/05/26 07:27:22;;;;;;;2.65;1.33;;;23.10;92.40;;;;;;4990284;28;20074;-71
2022/05/26 07:29:49;;;;;;;3.78;2.00;;;23.20;95.20;;;;;;4991577;28;20019;-72
2022/05/26 07:32:15;;;;;;;5.47;1.50;;;23.40;93.20;;;;;;4992217;28;20037;-72
2022/05/26 07:34:40;;;;;;;2.50;1.33;;;23.40;93.80;;;;;;4992431;28;20031;-73
2022/05/26 07:42:36;;;;;;;2.53;1.08;;;23.80;92.70;;;;;;4991049;28;20392;-73
2022/05/26 07:45:07;;;;;;;4.93;1.80;;;23.50;91.30;;;;;;4991040;28;20085;-73
2022/05/26 07:47:33;;;;;;;1.25;0.93;;;23.20;90.50;;;;;;4991120;28;20042;-72
2022/05/26 07:49:59;;;;;;;4.35;1.60;;;23.20;91.70;;;;;;4991671;28;20038;-72
2022/05/26 07:52:24;;;;;;;2.53;1.58;;;23.00;92.00;;;;;;4992104;28;20136;-72
2022/05/26 07:54:50;;;;;;;4.65;1.42;;;23.10;94.90;;;;;;4992296;28;20631;-72
2022/05/26 07:57:26;;;;;;;1.30;1.15;;;23.20;94.30;;;;;;4992242;28;20026;-71
2022/05/26 07:59:52;;;;;;;3.63;1.55;;;23.30;92.80;;;;;;4991980;28;20241;-68
2022/05/26 08:02:19;;;;;;;1.55;1.00;;;23.20;92.30;;;;;;4991601;28;20060;-69
2022/05/26 08:04:45;;;;;;;1.85;1.33;;;23.40;94.10;;;;;;4991912;28;20038;-70
2022/05/26 08:07:11;;;;;;;3.10;0.90;;;23.60;90.80;;;;;;4991395;28;20380;-72
2022/05/26 08:09:40;;;;;;;1.23;1.10;;;23.60;91.30;;;;;;4991995;28;20030;-73
2022/05/26 08:12:11;;;;;;;1.90;0.93;;;24.10;91.70;;;;;;4991850;28;20103;-72
2022/05/26 08:14:38;;;;;;;2.70;1.13;;;24.30;91.20;;;;;;4991937;28;20050;-71
2022/05/26 08:17:05;;;;;;;1.92;1.45;;;24.80;90.00;;;;;;4992102;28;20030;-71
2022/05/26 08:19:31;;;;;;;1.20;1.00;;;25.30;88.80;;;;;;4991326;28;20041;-72
2022/05/26 08:21:57;;;;;;;1.17;0.88;;;25.00;82.70;;;;;;4991314;28;20031;-72
2022/05/26 08:24:24;;;;;;;0.80;0.80;;;25.00;79.90;;;;;;4991146;28;20038;-72
2022/05/26 08:26:50;;;;;;;5.68;1.58;;;25.00;80.90;;;;;;4991621;28;20065;-72
2022/05/26 08:29:17;;;;;;;2.15;1.40;;;25.10;76.90;;;;;;4991716;28;20023;-72
2022/05/26 08:31:43;;;;;;;3.75;1.55;;;24.80;76.80;;;;;;4992818;28;20365;-69
2022/05/26 08:34:09;;;;;;;2.50;0.90;;;24.70;78.40;;;;;;4995063;28;20036;-72
2022/05/26 08:36:35;;;;;;;0.73;0.73;;;24.70;77.60;;;;;;4994093;28;20045;-73
2022/05/26 08:39:02;;;;;;;1.17;0.65;;;25.00;76.10;;;;;;4994326;28;20018;-71
2022/05/26 08:41:35;;;;;;;6.78;2.45;;;25.20;76.80;;;;;;4994073;28;20469;-71
2022/05/26 08:44:05;;;;;;;7.85;1.10;;;25.10;77.40;;;;;;4994111;28;20060;-72
2022/05/26 08:46:45;;;;;;;1.08;0.68;;;24.80;70.50;;;;;;4993564;28;20133;-71
2022/05/26 08:49:21;;;;;;;1.02;0.70;;;24.80;69.40;;;;;;4994342;28;20034;-73
2022/05/26 08:51:55;;;;;;;0.73;0.52;;;25.00;68.70;;;;;;4994543;28;20069;-70
2022/05/26 08:54:30;;;;;;;1.33;0.70;;;24.80;67.50;;;;;;4994615;28;20525;-72
2022/05/26 08:56:58;;;;;;;4.53;1.35;;;25.00;68.30;;;;;;4994613;28;20105;-72
2022/05/26 08:59:32;;;;;;;3.15;1.10;;;24.80;67.30;;;;;;4994714;28;20105;-73
2022/05/26 09:02:01;;;;;;;1.80;1.02;;;25.10;68.90;;;;;;4994674;28;20081;-71
2022/05/26 09:04:28;;;;;;;1.52;0.90;;;24.90;67.90;;;;;;4994347;28;20036;-69
2022/05/26 09:15:21;;;;;;;1.95;0.88;;;25.20;71.30;;;;;;4995113;28;20034;-73
2022/05/26 09:17:47;;;;;;;1.00;0.90;;;25.20;69.20;;;;;;4996896;28;20093;-65
2022/05/26 09:20:36;;;;;;;1.10;0.80;;;25.30;69.20;;;;;;4994277;28;20481;-71
2022/05/26 09:23:27;;;;;;;1.05;0.80;;;25.30;71.30;;;;;;4999774;28;20120;-71
2022/05/26 09:25:53;;;;;;;0.93;0.77;;;25.60;71.90;;;;;;4973276;28;20071;-72
2022/05/26 09:28:48;;;;;;;2.55;0.63;;;25.40;73.60;;;;;;4974065;28;20065;-70
2022/05/26 09:31:36;;;;;;;1.27;0.77;;;25.30;67.60;;;;;;4972943;28;20026;-71
2022/05/26 09:34:34;;;;;;;2.20;1.40;;;25.10;67.50;;;;;;4972628;28;20030;-72
2022/05/26 09:37:06;;;;;;;1.42;0.70;;;25.30;68.60;;;;;;4972493;28;20097;-72
2022/05/26 09:39:39;;;;;;;;;;;25.80;68.50;;;;;;4993954;28;20433;-72
2022/05/26 09:42:27;;;;;;;3.38;1.08;;;25.40;65.80;;;;;;4993727;28;20372;-69
2022/05/26 09:44:55;;;;;;;1.58;0.68;;;25.60;66.00;;;;;;4992539;28;20033;-72
2022/05/26 09:47:30;;;;;;;1.65;0.70;;;25.60;64.60;;;;;;4993261;28;20058;-72
2022/05/26 09:49:59;;;;;;;0.55;0.55;;;25.50;63.70;;;;;;4992994;28;20385;-69
2022/05/26 09:52:46;;;;;;;1.17;0.77;;;25.70;64.80;;;;;;4992551;28;20120;-72
2022/05/26 09:55:33;;;;;;;3.42;1.00;;;25.70;63.90;;;;;;4993034;28;20030;-66
2022/05/26 09:58:06;;;;;;;1.35;0.70;;;26.00;65.00;;;;;;4990225;28;20027;-72
2022/05/26 10:00:38;;;;;;;1.50;0.90;;;26.20;63.20;;;;;;4993595;28;20054;-71
2022/05/26 10:03:17;;;;;;;1.08;0.93;;;25.90;63.00;;;;;;4993286;28;20034;-68
2022/05/26 10:06:12;;;;;;;1.95;0.95;;;26.10;63.10;;;;;;4993168;28;20046;-73
2022/05/26 10:08:46;;;;;;;1.17;0.93;;;25.80;63.50;;;;;;4989266;28;20052;-72
2022/05/26 10:11:36;;;;;;;2.05;0.63;;;25.90;61.80;;;;;;4992723;28;20066;-72
2022/05/26 10:14:08;;;;;;;0.50;0.50;;;26.00;61.80;;;;;;5022988;28;20038;-72
2022/05/26 10:17:06;;;;;;;3.88;1.02;;;26.10;61.40;;;;;;4995486;28;20026;-71
2022/05/26 10:19:53;;;;;;;3.38;1.05;;;26.50;62.40;;;;;;5001387;28;20117;-72
2022/05/26 10:22:50;;;;;;;2.05;0.80;;;26.40;60.90;;;;;;4991943;28;20101;-70
2022/05/26 10:25:43;;;;;;;2.75;0.90;;;26.20;60.10;;;;;;4983523;28;20215;-71
2022/05/26 10:28:28;;;;;;;1.65;0.98;;;26.30;61.40;;;;;;4982208;28;20707;-71
2022/05/26 10:31:35;;;;;;;1.05;0.82;;;26.10;60.30;;;;;;5023914;28;20032;-71
2022/05/26 10:34:00;;;;;;;1.20;0.88;;;26.60;63.60;;;;;;4992456;28;20081;-72
2022/05/26 10:36:47;;;;;;;5.00;1.05;;;26.40;60.10;;;;;;4990219;28;20038;-65
2022/05/26 10:39:21;;;;;;;2.17;0.90;;;26.50;60.60;;;;;;4991535;28;20026;-72
2022/05/26 10:41:52;;;;;;;1.58;0.90;;;26.40;60.40;;;;;;4992324;28;20045;-71
2022/05/26 10:44:28;;;;;;;0.90;0.70;;;26.40;59.90;;;;;;4978713;28;20042;-72
2022/05/26 10:47:18;;;;;;;2.25;0.82;;;26.50;61.80;;;;;;4991260;28;20061;-71
2022/05/26 10:50:08;;;;;;;0.63;0.55;;;26.70;59.10;;;;;;4989109;28;20046;-70
2022/05/26 10:52:54;;;;;;;0.65;0.60;;;26.60;59.30;;;;;;4963750;28;20136;-72
2022/05/26 10:55:29;;;;;;;0.93;0.75;;;26.70;59.80;;;;;;4964680;28;20062;-70
2022/05/26 10:58:06;;;;;;;0.98;0.73;;;26.60;59.10;;;;;;4949914;28;20101;-72
2022/05/26 11:00:33;;;;;;;1.45;0.93;;;26.40;57.60;;;;;;4931026;29;20051;-72
2022/05/26 11:03:07;;;;;;;2.60;0.80;;;26.40;57.20;;;;;;4933110;28;20035;-72
2022/05/26 11:05:50;;;;;;;1.75;0.80;;;26.40;57.30;;;;;;4950459;29;20829;-69
2022/05/26 11:08:35;;;;;;;2.20;0.82;;;26.50;58.50;;;;;;4950257;29;20094;-72
2022/05/26 11:11:31;;;;;;;1.70;0.70;;;26.60;59.10;;;;;;4950689;29;20039;-72
2022/05/26 11:17:21;;;;;;;1.55;0.68;;;26.90;60.80;;;;;;4950171;29;20130;-71
2022/05/26 11:17:22;;;;;;;1.52;0.95;;;26.80;55.50;;;;;;4948180;28;20050;-72
2022/05/26 11:20:03;;;;;;;1.10;0.70;;;26.60;57.00;;;;;;4957433;28;20050;-72
2022/05/26 11:22:30;;;;;;;0.93;0.75;;;26.90;58.30;;;;;;4957432;28;20070;-72
2022/05/26 11:24:58;;;;;;;6.38;0.90;;;27.20;58.50;;;;;;4949500;29;20023;-73
2022/05/26 11:27:24;;;;;;;1.38;0.85;;;26.80;59.50;;;;;;4973158;28;20050;-73
2022/05/26 11:36:07;;;;;;;3.05;0.98;;;26.70;57.20;;;;;;5000903;28;20106;-73
2022/05/26 11:38:28;;;;;;;4.05;1.15;;;26.50;58.90;;;;;;4990990;28;20432;-72
2022/05/26 11:41:35;;;;;;;2.45;0.80;;;26.50;60.90;;;;;;5009686;28;20029;-72
2022/05/26 11:44:11;;;;;;;2.55;0.80;;;26.70;59.50;;;;;;5008098;28;20034;-73
2022/05/26 11:46:47;;;;;;;1.08;0.82;;;26.80;59.40;;;;;;4992126;28;20050;-70
2022/05/26 11:49:43;;;;;;;1.05;0.80;;;26.90;60.70;;;;;;4988256;28;20049;-72
2022/05/26 11:52:27;;;;;;;1.40;0.80;;;26.80;59.70;;;;;;4988365;28;20425;-71
2022/05/26 11:54:52;;;;;;;2.45;0.80;;;27.00;59.20;;;;;;4988755;28;20591;-72
2022/05/26 11:57:38;;;;;;;2.22;0.98;;;27.10;60.20;;;;;;4988765;28;20022;-72
2022/05/26 12:00:23;;;;;;;1.63;0.65;;;27.30;59.10;;;;;;4989018;28;20113;-72
2022/05/26 12:03:23;;;;;;;0.93;0.63;;;27.50;60.70;;;;;;4987181;28;20067;-72
2022/05/26 12:05:55;;;;;;;1.00;0.85;;;27.60;58.60;;;;;;4986569;28;20046;-72
2022/05/26 12:08:53;;;;;;;1.75;0.85;;;27.50;58.30;;;;;;4991179;28;20121;-72
2022/05/26 12:11:39;;;;;;;0.75;0.75;;;27.10;58.20;;;;;;4971597;28;20053;-73
2022/05/26 12:14:07;;;;;;;1.42;0.82;;;27.20;59.80;;;;;;4987877;28;20045;-63
2022/05/26 12:16:34;;;;;;;1.52;0.93;;;26.90;59.00;;;;;;4988605;28;20029;-63
2022/05/26 12:19:07;;;;;;;4.30;0.90;;;26.90;58.70;;;;;;4990789;28;20046;-69
2022/05/26 12:21:43;;;;;;;1.77;1.20;;;27.00;59.40;;;;;;4978622;28;20118;-67
2022/05/26 12:24:31;;;;;;;6.93;0.93;;;27.00;58.90;;;;;;4994949;28;20030;-72
2022/05/26 12:26:57;;;;;;;2.78;0.50;;;26.90;58.20;;;;;;4994303;28;20046;-73
2022/05/26 12:29:41;;;;;;;0.77;0.77;;;27.00;59.20;;;;;;4994420;28;20077;-72
2022/05/26 12:32:26;;;;;;;0.90;0.80;;;27.10;58.60;;;;;;4994511;28;20038;-73
2022/05/26 12:34:55;;;;;;;0.73;0.55;;;27.20;60.00;;;;;;4994319;28;20395;-72
2022/05/26 12:37:58;;;;;;;1.90;0.60;;;27.00;58.20;;;;;;4995646;28;20030;-64
2022/05/26 12:40:50;;;;;;;5.15;0.85;;;27.20;59.00;;;;;;4993591;28;20049;-73
2022/05/26 12:43:26;;;;;;;0.73;0.60;;;27.20;58.50;;;;;;4994833;28;20022;-73
2022/05/26 12:46:12;;;;;;;1.00;0.77;;;27.30;58.20;;;;;;4994284;28;20460;-71
2022/05/26 12:49:16;;;;;;;1.88;0.80;;;27.20;57.30;;;;;;4994483;28;20370;-73
2022/05/26 12:51:42;;;;;;;1.05;0.90;;;27.10;57.30;;;;;;4994026;28;20054;-65
2022/05/26 12:54:15;;;;;;;0.55;0.50;;;27.10;57.70;;;;;;5024471;28;20396;-72
2022/05/26 12:56:53;;;;;;;1.67;0.90;;;27.20;57.50;;;;;;4983733;28;20069;-72
2022/05/26 12:59:26;;;;;;;2.78;0.88;;;27.30;58.40;;;;;;4994142;28;20442;-73
2022/05/26 13:01:52;;;;;;;2.58;0.70;;;27.20;57.50;;;;;;4994313;28;20038;-71
2022/05/26 13:04:26;;;;;;;2.40;0.73;;;27.00;57.00;;;;;;4993972;28;20026;-73
2022/05/26 13:06:54;;;;;;;3.40;0.80;;;26.90;56.90;;;;;;4981016;28;20022;-74
2022/05/26 13:09:26;;;;;;;0.68;0.38;;;27.00;56.60;;;;;;4972771;28;20102;-69
2022/05/26 13:11:59;;;;;;;2.60;1.05;;;27.10;57.60;;;;;;4988985;28;20030;-70
2022/05/26 13:14:31;;;;;;;5.72;0.85;;;27.00;57.20;;;;;;4994035;28;20038;-71
2022/05/26 13:17:11;;;;;;;3.50;0.80;;;27.00;56.60;;;;;;5010008;28;20038;-72
2022/05/26 13:19:47;;;;;;;1.08;0.50;;;26.90;56.70;;;;;;5006787;28;20037;-71
2022/05/26 13:22:16;;;;;;;4.07;1.13;;;27.00;56.50;;;;;;5013702;28;20039;-65
2022/05/26 13:24:55;;;;;;;3.38;0.90;;;26.80;56.30;;;;;;4985753;28;20022;-75
2022/05/26 13:27:24;;;;;;;2.65;0.82;;;26.60;56.60;;;;;;4992799;28;20137;-71
2022/05/26 13:29:52;;;;;;;1.90;1.15;;;26.50;56.50;;;;;;4991426;28;20019;-73
2022/05/26 13:35:18;;;;;;;4.85;0.98;;;26.70;56.40;;;;;;4992628;28;20645;-74
2022/05/26 13:37:44;;;;;;;2.08;0.88;;;26.90;56.70;;;;;;4990070;28;20033;-73
2022/05/26 13:40:24;;;;;;;1.58;0.90;;;26.90;56.80;;;;;;4978505;28;20030;-69
2022/05/26 13:42:52;;;;;;;1.20;0.75;;;26.90;56.40;;;;;;4991297;28;20101;-71
2022/05/26 13:45:26;;;;;;;9.05;0.93;;;27.00;56.60;;;;;;4992155;28;20034;-72
2022/05/26 13:48:11;;;;;;;1.83;0.80;;;27.10;57.60;;;;;;4993141;28;20412;-74
2022/05/26 13:50:50;;;;;;;0.95;0.70;;;27.20;57.20;;;;;;4991710;28;20056;-74
2022/05/26 13:53:17;;;;;;;1.00;0.77;;;27.20;56.50;;;;;;4976830;28;20035;-74
2022/05/26 13:55:48;;;;;;;2.05;0.70;;;27.20;55.90;;;;;;4972989;28;20026;-74
2022/05/26 13:58:18;;;;;;;1.95;1.00;;;27.30;56.60;;;;;;4975775;28;20105;-72
2022/05/26 14:00:45;;;;;;;3.60;0.63;;;27.30;55.80;;;;;;4972851;28;20035;-73